< < Back
Terminal Aerodrome Forecast


Current Version              Previous Versions:   1  2  3  4  5  6  7  8  9  

Terminal Aerodrome Forecast

139
FTUS42 KCHS 031136
TAFSAV
TAF
KSAV 031136Z 0312/0412 10005KT 1/4SM FG VV002
     FM031500 13004KT 4SM BR OVC005
     FM031800 16009KT P6SM SCT015 BKN050
     FM040000 18006KT 5SM BR SCT005
     FM040500 18005KT 1SM BR OVC002=



Latest METAR

441
SAUS80 KWBC 031200
MTRSAV
METAR KSAV 031153Z 10004KT 1/4SM R10/1600V2000FT FG VV002 13/13 A3024
RMK AO2 SLP239 T01330128 10150 20128 53008


USA.gov is the U.S. government's official web portal to all federal, state and local government web resources and services.